createdAt,value
2023-03-20T00:00:33.132Z,29.03
2023-03-20T00:04:36.505Z,29.40
2023-03-20T00:08:40.371Z,29.63
2023-03-20T00:12:44.778Z,30.43
2023-03-20T00:16:51.177Z,28.90
2023-03-20T00:20:54.618Z,31.33
2023-03-20T00:24:57.558Z,32.87
2023-03-20T00:29:00.777Z,31.90
2023-03-20T00:33:05.327Z,34.80
2023-03-20T00:37:11.429Z,34.97
2023-03-20T00:41:26.548Z,32.60
2023-03-20T00:45:31.434Z,34.77
2023-03-20T00:49:40.411Z,32.80
2023-03-20T00:53:44.680Z,31.10
2023-03-20T00:57:50.374Z,31.70
2023-03-20T01:01:58.935Z,30.47
2023-03-20T01:06:13.910Z,29.57
2023-03-20T01:10:17.889Z,29.17
2023-03-20T01:14:21.213Z,29.80
2023-03-20T01:18:26.676Z,27.77
2023-03-20T01:22:32.972Z,27.63
2023-03-20T01:26:42.255Z,28.40
2023-03-20T01:30:46.423Z,26.67
2023-03-20T01:34:53.111Z,26.67
2023-03-20T01:39:02.294Z,26.03
2023-03-20T01:43:12.481Z,24.47
2023-03-20T01:47:18.061Z,24.33
2023-03-20T01:51:29.596Z,24.23
2023-03-20T01:55:43.159Z,21.73
2023-03-20T01:59:51.238Z,20.50
2023-03-20T02:03:56.178Z,17.67
2023-03-20T02:08:19.015Z,18.43
2023-03-20T02:12:26.417Z,17.17
2023-03-20T02:16:29.965Z,17.70
2023-03-20T02:20:58.010Z,17.53
2023-03-20T02:25:38.286Z,19.43
2023-03-20T02:30:06.252Z,19.57
2023-03-20T02:34:43.380Z,16.10
2023-03-20T02:39:18.485Z,16.87
2023-03-20T02:43:26.810Z,15.63
2023-03-20T02:47:33.976Z,15.83
2023-03-20T02:51:56.305Z,14.73
2023-03-20T02:56:10.227Z,13.23
2023-03-20T03:00:16.794Z,12.37
2023-03-20T03:04:24.848Z,12.97
2023-03-20T03:08:32.478Z,12.30
2023-03-20T03:12:41.396Z,12.73
2023-03-20T03:16:47.720Z,13.10
2023-03-20T03:20:56.877Z,12.47
2023-03-20T03:25:00.325Z,11.43
2023-03-20T03:29:13.145Z,12.27
2023-03-20T03:33:23.003Z,11.73
2023-03-20T03:37:38.029Z,11.07
2023-03-20T03:41:44.426Z,11.90
2023-03-20T03:45:56.097Z,12.23
2023-03-20T03:50:03.177Z,11.90
2023-03-20T03:54:10.199Z,12.00
2023-03-20T03:58:20.430Z,11.70
2023-03-20T04:02:27.932Z,12.10
2023-03-20T04:06:33.493Z,12.70
2023-03-20T04:10:37.836Z,12.40
2023-03-20T04:14:44.191Z,13.47
2023-03-20T04:18:55.645Z,15.57
2023-03-20T04:22:58.793Z,17.27
2023-03-20T04:27:02.730Z,17.30
2023-03-20T04:31:07.005Z,17.93
2023-03-20T04:35:43.183Z,17.27
2023-03-20T04:39:51.947Z,16.03
2023-03-20T04:43:55.154Z,16.97
2023-03-20T04:47:59.966Z,16.70
2023-03-20T04:52:07.907Z,15.43
2023-03-20T04:56:17.598Z,15.47
2023-03-20T05:00:23.174Z,15.07
2023-03-20T05:04:27.943Z,14.77
2023-03-20T05:08:33.696Z,14.73
2023-03-20T05:12:37.599Z,14.77
2023-03-20T05:17:01.381Z,12.73
2023-03-20T05:21:20.826Z,12.67
2023-03-20T05:25:55.377Z,12.00
2023-03-20T05:30:32.208Z,12.00
2023-03-20T05:34:53.855Z,11.40
2023-03-20T05:39:20.089Z,10.67
2023-03-20T05:43:43.988Z,10.97
2023-03-20T05:48:06.192Z,10.83
2023-03-20T05:52:22.770Z,9.07
2023-03-20T05:56:41.443Z,10.33
2023-03-20T06:01:08.275Z,10.00
2023-03-20T06:05:29.725Z,10.20
2023-03-20T06:09:36.572Z,11.77
2023-03-20T06:13:44.740Z,11.80
2023-03-20T06:17:51.768Z,10.40
2023-03-20T06:21:55.009Z,10.13
2023-03-20T06:25:58.311Z,9.53
2023-03-20T06:30:03.264Z,9.93
2023-03-20T06:34:12.104Z,11.60
2023-03-20T06:38:20.929Z,10.97
2023-03-20T06:42:24.739Z,10.97
2023-03-20T06:46:27.741Z,12.17
2023-03-20T06:50:32.875Z,12.93
2023-03-20T06:54:36.139Z,12.50
2023-03-20T06:58:39.475Z,13.10
2023-03-20T07:02:43.287Z,13.70
2023-03-20T07:06:51.536Z,14.13
2023-03-20T07:10:55.190Z,13.43
2023-03-20T07:14:58.617Z,14.23
2023-03-20T07:19:02.648Z,13.77
2023-03-20T07:23:11.985Z,12.47
2023-03-20T07:27:14.939Z,13.43
2023-03-20T07:31:21.954Z,10.57
2023-03-20T07:35:29.666Z,11.80
2023-03-20T07:39:34.047Z,11.50
2023-03-20T07:43:56.719Z,11.07
2023-03-20T07:48:21.966Z,10.90
2023-03-20T07:52:25.635Z,11.07
2023-03-20T07:56:30.764Z,10.33
2023-03-20T08:00:33.440Z,9.77
2023-03-20T08:04:36.466Z,9.63
2023-03-20T08:08:39.514Z,9.83
2023-03-20T08:12:44.844Z,10.07
2023-03-20T08:16:50.484Z,9.77
2023-03-20T08:20:56.794Z,10.47
2023-03-20T08:24:59.516Z,9.57
2023-03-20T08:29:03.673Z,9.27
2023-03-20T08:33:07.379Z,9.30
2023-03-20T08:37:10.712Z,9.67
2023-03-20T08:41:13.460Z,8.67
2023-03-20T08:45:17.953Z,8.93
2023-03-20T08:49:20.821Z,8.53
2023-03-20T08:53:23.562Z,9.43
2023-03-20T08:57:26.408Z,7.83
2023-03-20T09:01:47.967Z,7.93
2023-03-20T09:05:52.413Z,8.77
2023-03-20T09:09:55.162Z,8.40
2023-03-20T09:13:57.882Z,7.77
2023-03-20T09:18:04.012Z,7.37
2023-03-20T09:22:07.334Z,7.63
2023-03-20T09:26:10.118Z,7.70
2023-03-20T09:30:14.428Z,7.23
2023-03-20T09:34:18.472Z,6.40
2023-03-20T09:38:21.528Z,7.13
2023-03-20T09:42:38.139Z,6.50
2023-03-20T09:46:58.467Z,5.73
2023-03-20T09:51:16.653Z,6.20
2023-03-20T09:55:24.519Z,5.73
2023-03-20T09:59:28.667Z,5.50
2023-03-20T10:03:38.426Z,5.70
2023-03-20T10:07:42.571Z,6.00
2023-03-20T10:12:04.071Z,6.53
2023-03-20T10:16:16.520Z,5.57
2023-03-20T10:20:27.433Z,5.77
2023-03-20T10:24:37.212Z,5.73
2023-03-20T10:28:48.119Z,5.67
2023-03-20T10:32:58.933Z,5.93
2023-03-20T10:37:16.724Z,4.83
2023-03-20T10:41:24.170Z,5.00
2023-03-20T10:45:42.579Z,5.07
2023-03-20T10:49:51.762Z,5.27
2023-03-20T10:53:59.287Z,5.70
2023-03-20T10:58:11.786Z,5.27
2023-03-20T11:02:15.740Z,5.50
2023-03-20T11:06:21.806Z,6.20
2023-03-20T11:10:27.946Z,7.40
2023-03-20T11:14:37.552Z,6.20
2023-03-20T11:18:42.877Z,5.30
2023-03-20T11:22:48.030Z,4.90
2023-03-20T11:26:52.805Z,8.10
2023-03-20T11:31:04.790Z,6.07
2023-03-20T11:35:19.286Z,5.90
2023-03-20T11:39:25.258Z,5.63
2023-03-20T11:43:28.872Z,5.60
2023-03-20T11:47:36.070Z,5.93
2023-03-20T11:51:39.085Z,5.20
2023-03-20T11:55:46.528Z,5.13
2023-03-20T11:59:49.249Z,5.40
2023-03-20T12:03:59.764Z,5.23
2023-03-20T12:08:07.422Z,4.80
2023-03-20T12:12:20.421Z,5.33
2023-03-20T12:16:27.591Z,5.63
2023-03-20T12:20:39.413Z,6.20
2023-03-20T12:24:46.823Z,5.37
2023-03-20T12:28:55.997Z,6.23
2023-03-20T12:33:05.226Z,6.30
2023-03-20T12:37:13.303Z,6.57
2023-03-20T12:41:21.629Z,7.23
2023-03-20T12:45:26.951Z,6.70
2023-03-20T12:49:39.592Z,7.43
2023-03-20T12:53:56.116Z,7.17
2023-03-20T12:58:07.780Z,6.67
2023-03-20T13:02:35.127Z,6.73
2023-03-20T13:06:46.952Z,7.17
2023-03-20T13:11:02.685Z,5.80
2023-03-20T13:15:20.147Z,6.07
2023-03-20T13:19:32.099Z,4.33
2023-03-20T13:23:41.175Z,4.60
2023-03-20T13:27:50.980Z,3.90
2023-03-20T13:32:04.673Z,4.10
2023-03-20T13:36:18.382Z,4.37
2023-03-20T13:40:23.564Z,4.40
2023-03-20T13:44:30.616Z,4.00
2023-03-20T13:48:36.351Z,4.33
2023-03-20T13:52:46.500Z,4.40
2023-03-20T13:56:56.052Z,4.53
2023-03-20T14:01:07.024Z,5.00
2023-03-20T14:05:15.433Z,4.53
2023-03-20T14:09:27.290Z,5.47
2023-03-20T14:13:31.947Z,5.70
2023-03-20T14:17:36.649Z,5.90
2023-03-20T14:21:39.802Z,6.47
2023-03-20T14:25:44.160Z,5.70
2023-03-20T14:29:46.895Z,5.80
2023-03-20T14:33:59.443Z,5.23
2023-03-20T14:38:24.849Z,4.93
2023-03-20T14:42:38.404Z,5.00
2023-03-20T14:46:49.230Z,7.03
2023-03-20T14:51:03.118Z,6.97
2023-03-20T14:55:30.431Z,6.20
2023-03-20T14:59:33.742Z,6.13
2023-03-20T15:03:40.962Z,4.87
2023-03-20T15:07:45.233Z,5.53
2023-03-20T15:11:48.388Z,7.77
2023-03-20T15:15:56.647Z,7.50
2023-03-20T15:20:04.427Z,5.97
2023-03-20T15:24:08.987Z,7.43
2023-03-20T15:28:18.054Z,6.00
2023-03-20T15:32:23.744Z,5.07
2023-03-20T15:36:28.714Z,6.40
2023-03-20T15:40:49.225Z,6.00
2023-03-20T15:44:55.179Z,6.50
2023-03-20T15:49:00.200Z,7.03
2023-03-20T15:53:04.087Z,6.67
2023-03-20T15:57:08.334Z,7.23
2023-03-20T16:01:18.427Z,7.30
2023-03-20T16:05:25.547Z,7.47
2023-03-20T16:09:29.080Z,7.33
2023-03-20T16:13:39.109Z,7.13
2023-03-20T16:17:42.138Z,8.63
2023-03-20T16:21:51.140Z,10.43
2023-03-20T16:25:59.042Z,8.57
2023-03-20T16:30:06.448Z,9.27
2023-03-20T16:34:15.760Z,10.23
2023-03-20T16:38:25.631Z,10.00
2023-03-20T16:42:30.541Z,12.33
2023-03-20T16:46:34.697Z,10.90
2023-03-20T16:50:39.303Z,11.90
2023-03-20T16:54:42.139Z,12.20
2023-03-20T16:58:46.746Z,12.33
2023-03-20T17:02:53.675Z,11.83
2023-03-20T17:07:00.149Z,11.43
2023-03-20T17:11:10.905Z,11.40
2023-03-20T17:15:16.631Z,12.77
2023-03-20T17:19:21.317Z,13.20
2023-03-20T17:23:24.375Z,11.97
2023-03-20T17:27:28.247Z,13.20
2023-03-20T17:31:31.737Z,12.23
2023-03-20T17:35:36.142Z,12.03
2023-03-20T17:39:38.898Z,13.07
2023-03-20T17:43:42.827Z,13.00
2023-03-20T17:47:46.173Z,13.67
2023-03-20T17:51:50.246Z,13.63
2023-03-20T17:55:53.244Z,13.70
2023-03-20T17:59:56.108Z,13.10
2023-03-20T18:04:00.841Z,12.73
2023-03-20T18:08:06.340Z,14.40
2023-03-20T18:12:12.590Z,14.30
2023-03-20T18:16:19.563Z,14.80
2023-03-20T18:20:26.808Z,15.73
2023-03-20T18:24:30.932Z,16.80
2023-03-20T18:28:33.615Z,15.87
2023-03-20T18:32:36.380Z,15.07
2023-03-20T18:36:39.138Z,13.73
2023-03-20T18:40:47.069Z,16.40
2023-03-20T18:44:49.777Z,14.90
2023-03-20T18:48:53.868Z,16.03
2023-03-20T18:52:58.806Z,15.13
2023-03-20T18:57:02.883Z,15.93
2023-03-20T19:01:06.007Z,18.63
2023-03-20T19:05:10.523Z,15.23
2023-03-20T19:09:13.417Z,15.80
2023-03-20T19:13:19.449Z,14.57
2023-03-20T19:17:22.151Z,18.80
2023-03-20T19:21:26.229Z,17.53
2023-03-20T19:25:29.729Z,14.50
2023-03-20T19:29:33.834Z,15.00
2023-03-20T19:33:36.786Z,15.20
2023-03-20T19:37:39.564Z,16.70
2023-03-20T19:41:42.295Z,15.00
2023-03-20T19:45:46.345Z,14.40
2023-03-20T19:49:49.044Z,13.83
2023-03-20T19:53:52.150Z,14.03
2023-03-20T19:57:56.502Z,14.50
2023-03-20T20:02:00.693Z,15.27
2023-03-20T20:06:04.634Z,14.23
2023-03-20T20:10:08.242Z,13.47
2023-03-20T20:14:14.525Z,12.20
2023-03-20T20:18:19.998Z,13.07
2023-03-20T20:22:26.366Z,11.73
2023-03-20T20:26:31.342Z,13.03
2023-03-20T20:30:38.803Z,12.20
2023-03-20T20:39:06.493Z,15.07
2023-03-20T20:43:10.982Z,14.60
2023-03-20T20:47:14.441Z,12.87
2023-03-20T20:51:19.046Z,12.90
2023-03-20T20:55:24.624Z,12.87
2023-03-20T20:59:28.221Z,13.13
2023-03-20T21:03:30.926Z,12.50
2023-03-20T21:07:35.711Z,14.07
2023-03-20T21:11:38.617Z,15.43
2023-03-20T21:15:42.077Z,13.67
2023-03-20T21:19:45.211Z,13.57
2023-03-20T21:23:49.816Z,13.90
2023-03-20T21:27:52.549Z,13.33
2023-03-20T21:31:55.460Z,12.40
2023-03-20T21:35:58.865Z,14.13
2023-03-20T21:40:03.226Z,14.50
2023-03-20T21:44:06.356Z,12.87
2023-03-20T21:53:11.898Z,16.27
2023-03-20T21:57:34.502Z,18.77
2023-03-20T22:01:53.279Z,15.60
2023-03-20T22:10:58.491Z,15.00
2023-03-20T22:19:45.956Z,17.20
2023-03-20T22:24:05.773Z,14.50
2023-03-20T22:28:15.604Z,15.13
2023-03-20T22:37:17.066Z,18.53
2023-03-20T22:45:11.520Z,17.00
2023-03-20T22:49:15.998Z,15.50
2023-03-20T22:53:19.505Z,15.53
2023-03-20T22:57:26.609Z,16.80
2023-03-20T23:01:37.393Z,17.73
2023-03-20T23:05:42.029Z,16.20
2023-03-20T23:09:44.716Z,15.67
2023-03-20T23:13:47.743Z,17.03
2023-03-20T23:17:50.874Z,16.43
2023-03-20T23:21:54.938Z,16.77
2023-03-20T23:26:06.345Z,16.67
2023-03-20T23:30:10.265Z,16.73
2023-03-20T23:34:14.822Z,17.40
2023-03-20T23:38:20.174Z,16.10
2023-03-20T23:42:30.264Z,15.10
2023-03-20T23:46:33.597Z,15.67
2023-03-20T23:50:49.954Z,15.23
2023-03-20T23:54:56.494Z,16.40
2023-03-20T23:59:05.513Z,16.23
